Time;durP1;ratioP1;P1;durP2;ratioP2;P2;SDS_P1;SDS_P2;PMS_P1;PMS_P2;Temp;Humidity;BMP_temperature;BMP_pressure;BME280_temperature;BME280_humidity;BME280_pressure;Samples;Min_cycle;Max_cycle;Signal;HPM_P1;HPM_P2
2021/12/21 00:01:01;;;;;;;4.32;3.08;;;2.50;84.40;;;;;;5113165;28;20040;-65
2021/12/21 00:03:26;;;;;;;7.88;3.63;;;2.50;84.60;;;;;;5112815;28;20468;-66
2021/12/21 00:05:53;;;;;;;6.00;3.42;;;2.50;84.70;;;;;;5127902;27;20031;-66
2021/12/21 00:08:19;;;;;;;4.65;2.90;;;2.50;84.60;;;;;;5134249;27;20031;-65
2021/12/21 00:10:47;;;;;;;4.47;3.05;;;2.50;84.40;;;;;;5134580;27;20106;-65
2021/12/21 00:16:13;;;;;;;7.75;3.15;;;2.50;83.90;;;;;;5134655;27;20563;-65
2021/12/21 00:19:26;;;;;;;5.70;3.47;;;2.40;84.20;;;;;;5134528;27;20023;-65
2021/12/21 00:24:01;;;;;;;6.85;3.58;;;2.40;84.20;;;;;;5134375;27;20046;-65
2021/12/21 00:26:26;;;;;;;5.82;3.38;;;2.40;84.30;;;;;;5133684;27;20035;-65
2021/12/21 00:28:59;;;;;;;6.80;2.95;;;2.40;84.40;;;;;;5133995;27;20428;-66
2021/12/21 00:31:26;;;;;;;6.22;3.47;;;2.40;84.40;;;;;;5133579;27;20034;-66
2021/12/21 00:33:53;;;;;;;6.88;3.67;;;2.40;84.40;;;;;;5134230;27;20552;-65
2021/12/21 00:36:22;;;;;;;5.30;3.42;;;2.40;84.60;;;;;;5133602;27;20027;-65
2021/12/21 00:38:49;;;;;;;8.73;4.00;;;2.30;84.80;;;;;;5115510;27;20463;-65
2021/12/21 00:41:15;;;;;;;6.90;3.50;;;2.30;84.70;;;;;;5133470;27;20019;-66
2021/12/21 00:43:41;;;;;;;5.28;3.20;;;2.30;84.60;;;;;;5134012;27;20023;-65
2021/12/21 00:46:07;;;;;;;6.80;3.10;;;2.30;84.70;;;;;;5133862;27;20047;-66
2021/12/21 00:48:34;;;;;;;7.03;3.50;;;2.30;85.00;;;;;;5133638;27;20030;-66
2021/12/21 00:51:07;;;;;;;6.30;3.22;;;2.30;84.80;;;;;;5133847;27;20403;-65
2021/12/21 00:53:36;;;;;;;6.80;3.90;;;2.30;84.30;;;;;;5133293;27;20030;-65
2021/12/21 00:56:03;;;;;;;5.05;3.20;;;2.30;84.20;;;;;;5115191;27;20053;-65
2021/12/21 00:58:28;;;;;;;6.05;3.70;;;2.30;84.00;;;;;;5133019;27;20025;-65
2021/12/21 01:00:54;;;;;;;5.40;3.40;;;2.30;84.00;;;;;;5123626;27;20106;-65
2021/12/21 01:03:20;;;;;;;5.50;3.15;;;2.20;84.10;;;;;;5112425;28;20051;-65
2021/12/21 01:08:42;;;;;;;5.07;3.50;;;2.20;84.10;;;;;;5112484;28;20542;-65
2021/12/21 01:11:20;;;;;;;6.95;3.60;;;2.20;84.30;;;;;;5112619;28;20027;-65
2021/12/21 01:21:32;;;;;;;6.35;3.42;;;2.20;85.40;;;;;;5112254;28;20044;-65
2021/12/21 01:29:25;;;;;;;6.27;3.73;;;2.10;86.00;;;;;;5112935;28;20031;-65
2021/12/21 01:32:11;;;;;;;12.07;4.13;;;2.10;86.10;;;;;;5111942;28;20042;-66
2021/12/21 01:37:23;;;;;;;10.02;3.95;;;2.10;86.40;;;;;;5112091;28;20464;-66
2021/12/21 01:50:08;;;;;;;6.50;3.45;;;2.00;86.70;;;;;;5112532;28;20088;-66
2021/12/21 01:52:34;;;;;;;6.97;3.90;;;2.00;86.70;;;;;;5111415;28;20027;-65
2021/12/21 01:55:00;;;;;;;9.32;4.13;;;2.00;86.40;;;;;;5112091;28;20027;-65
2021/12/21 01:57:25;;;;;;;6.50;3.63;;;2.00;86.60;;;;;;5111786;28;20028;-65
2021/12/21 01:59:51;;;;;;;11.50;4.18;;;2.00;86.50;;;;;;5094121;28;20383;-65
2021/12/21 02:02:19;;;;;;;9.18;3.92;;;2.00;86.30;;;;;;5111765;28;20069;-65
2021/12/21 02:04:45;;;;;;;6.60;3.33;;;2.00;86.20;;;;;;5112621;28;20106;-65
2021/12/21 02:07:11;;;;;;;6.25;3.88;;;2.00;86.00;;;;;;5112122;28;20059;-65
2021/12/21 02:09:39;;;;;;;6.35;3.95;;;2.00;86.00;;;;;;5111526;28;20151;-65
2021/12/21 02:12:11;;;;;;;6.75;3.75;;;2.00;85.80;;;;;;5131020;28;20027;-65
2021/12/21 02:14:37;;;;;;;7.60;3.78;;;2.00;85.60;;;;;;5132172;28;20023;-65
2021/12/21 02:17:34;;;;;;;5.80;3.80;;;2.00;85.30;;;;;;5132863;28;20146;-65
2021/12/21 02:20:04;;;;;;;7.10;3.65;;;2.00;85.20;;;;;;5132331;28;20019;-65
2021/12/21 02:22:33;;;;;;;5.25;3.40;;;1.90;85.10;;;;;;5132592;27;20373;-66
2021/12/21 02:25:19;;;;;;;5.28;3.50;;;1.90;85.20;;;;;;5136808;27;20106;-65
2021/12/21 02:27:57;;;;;;;4.53;3.33;;;1.90;85.00;;;;;;5136897;27;20168;-66
2021/12/21 02:30:23;;;;;;;7.28;3.58;;;1.90;85.00;;;;;;5136187;27;20030;-65
2021/12/21 02:32:50;;;;;;;6.20;3.45;;;1.90;85.10;;;;;;5136554;27;20023;-66
2021/12/21 02:35:16;;;;;;;4.85;3.40;;;1.90;85.20;;;;;;5117625;27;20324;-65
2021/12/21 02:37:42;;;;;;;5.72;3.58;;;1.90;85.10;;;;;;5136332;27;20434;-65
2021/12/21 02:40:08;;;;;;;6.57;3.47;;;1.90;85.00;;;;;;5136549;27;20031;-65
2021/12/21 02:42:34;;;;;;;5.90;3.38;;;1.90;85.10;;;;;;5135750;27;20111;-65
2021/12/21 02:45:00;;;;;;;6.50;3.63;;;1.90;84.90;;;;;;5136496;27;20084;-65
2021/12/21 02:47:26;;;;;;;5.55;3.35;;;1.80;84.80;;;;;;5135401;27;20034;-65
2021/12/21 02:49:52;;;;;;;7.68;3.33;;;1.90;84.70;;;;;;5136307;27;20030;-66
2021/12/21 02:52:17;;;;;;;5.55;3.28;;;1.80;84.30;;;;;;5122394;27;20452;-66
2021/12/21 02:54:43;;;;;;;6.00;3.25;;;1.80;84.20;;;;;;5115501;28;20030;-66
2021/12/21 02:57:09;;;;;;;4.80;3.45;;;1.80;84.30;;;;;;5115468;28;20030;-65
2021/12/21 02:59:34;;;;;;;6.88;3.47;;;1.80;84.30;;;;;;5115010;28;20089;-66
2021/12/21 03:02:00;;;;;;;7.38;3.42;;;1.80;84.20;;;;;;5114907;28;20033;-66
2021/12/21 03:04:26;;;;;;;4.32;3.20;;;1.70;84.20;;;;;;5114670;28;20027;-65
2021/12/21 03:09:38;;;;;;;7.85;3.30;;;1.70;84.40;;;;;;5114799;28;20067;-65
2021/12/21 03:14:34;;;;;;;6.30;3.75;;;1.70;84.10;;;;;;5114694;28;20114;-65
2021/12/21 03:17:00;;;;;;;3.92;2.60;;;1.80;83.80;;;;;;5115318;28;20032;-65
2021/12/21 03:19:26;;;;;;;7.32;3.40;;;1.70;83.50;;;;;;5114622;28;20027;-65
2021/12/21 03:21:53;;;;;;;4.30;3.08;;;1.70;83.50;;;;;;5115363;28;20032;-65
2021/12/21 03:24:19;;;;;;;5.97;3.20;;;1.70;83.20;;;;;;5096497;28;20038;-65
2021/12/21 03:26:45;;;;;;;4.93;3.40;;;1.70;83.10;;;;;;5114635;28;20078;-66
2021/12/21 03:29:11;;;;;;;6.80;3.45;;;1.70;83.20;;;;;;5115083;28;20028;-66
2021/12/21 03:31:37;;;;;;;6.97;3.22;;;1.70;83.00;;;;;;5114157;28;20391;-66
2021/12/21 03:34:03;;;;;;;11.65;3.38;;;1.70;83.10;;;;;;5114523;28;20041;-66
2021/12/21 03:36:29;;;;;;;8.00;3.50;;;1.70;83.30;;;;;;5113954;28;20028;-66
2021/12/21 03:39:04;;;;;;;6.63;3.20;;;1.70;83.20;;;;;;5114734;28;20019;-66
2021/12/21 03:41:30;;;;;;;6.90;3.13;;;1.70;83.00;;;;;;5114087;28;20148;-66
2021/12/21 03:43:59;;;;;;;5.25;3.13;;;1.70;82.70;;;;;;5113993;28;20445;-66
2021/12/21 03:46:25;;;;;;;5.90;3.50;;;1.70;82.70;;;;;;5113959;28;20472;-66
2021/12/21 03:48:51;;;;;;;3.92;3.10;;;1.70;83.00;;;;;;5114608;28;20034;-66
2021/12/21 03:51:18;;;;;;;3.45;2.78;;;1.70;83.30;;;;;;5114620;28;20051;-65
2021/12/21 03:53:46;;;;;;;6.43;3.83;;;1.70;83.20;;;;;;5113923;28;20396;-65
2021/12/21 03:56:57;;;;;;;4.95;2.70;;;1.70;82.60;;;;;;5114166;28;20527;-66
2021/12/21 03:58:57;;;;;;;5.30;2.65;;;1.70;81.90;;;;;;5099392;28;20035;-67
2021/12/21 04:01:23;;;;;;;4.10;3.10;;;1.70;81.60;;;;;;5113765;28;20114;-66
2021/12/21 04:03:49;;;;;;;4.15;2.80;;;1.70;81.20;;;;;;5114364;28;20090;-66
2021/12/21 04:06:15;;;;;;;5.35;3.38;;;1.70;81.90;;;;;;5114148;28;20488;-66
2021/12/21 04:08:40;;;;;;;5.90;2.83;;;1.60;82.20;;;;;;5119141;27;20023;-66
2021/12/21 04:11:06;;;;;;;4.95;2.90;;;1.70;82.40;;;;;;5134639;27;20349;-66
2021/12/21 04:13:32;;;;;;;4.53;2.90;;;1.70;82.70;;;;;;5133895;27;20050;-66
2021/12/21 04:16:00;;;;;;;4.55;2.90;;;1.70;82.50;;;;;;5134459;27;20117;-66
2021/12/21 04:18:26;;;;;;;6.97;3.10;;;1.60;82.30;;;;;;5133927;27;20023;-65
2021/12/21 04:20:52;;;;;;;6.00;2.88;;;1.70;82.40;;;;;;5134588;27;20106;-66
2021/12/21 04:23:18;;;;;;;5.18;2.75;;;1.70;82.30;;;;;;5134467;27;20023;-66
2021/12/21 04:25:44;;;;;;;8.95;3.15;;;1.70;82.00;;;;;;5133700;27;20050;-66
2021/12/21 04:28:10;;;;;;;4.70;3.10;;;1.70;81.50;;;;;;5134472;27;20031;-65
2021/12/21 04:30:36;;;;;;;4.63;2.60;;;1.70;81.40;;;;;;5133609;27;20031;-66
2021/12/21 04:33:02;;;;;;;3.95;2.70;;;1.60;81.40;;;;;;5134223;27;20092;-66
2021/12/21 04:35:28;;;;;;;4.45;2.95;;;1.70;81.70;;;;;;5133696;27;20027;-65
2021/12/21 04:37:59;;;;;;;6.18;2.58;;;1.60;81.60;;;;;;5133888;27;20027;-65
2021/12/21 04:40:37;;;;;;;6.53;3.10;;;1.60;81.70;;;;;;5133497;27;20038;-65
2021/12/21 04:43:04;;;;;;;4.05;2.80;;;1.70;81.60;;;;;;5133746;27;20107;-66
2021/12/21 04:45:29;;;;;;;8.35;3.13;;;1.70;81.30;;;;;;5132793;27;20085;-66
2021/12/21 04:47:55;;;;;;;7.60;3.15;;;1.60;81.20;;;;;;5133260;27;20054;-65
2021/12/21 04:50:21;;;;;;;3.95;3.22;;;1.60;81.20;;;;;;5110789;28;20024;-65
2021/12/21 04:52:46;;;;;;;6.75;3.17;;;1.60;81.00;;;;;;5112673;28;20035;-65
2021/12/21 04:55:12;;;;;;;7.57;3.33;;;1.60;81.40;;;;;;5130800;27;20016;-65
2021/12/21 04:57:38;;;;;;;4.43;2.83;;;1.50;81.30;;;;;;5131998;27;20027;-65
2021/12/21 05:00:05;;;;;;;5.40;3.03;;;1.50;81.60;;;;;;5133326;27;20439;-65
2021/12/21 05:02:31;;;;;;;6.97;3.22;;;1.50;81.70;;;;;;5132654;27;20015;-65
2021/12/21 05:05:16;;;;;;;6.20;3.22;;;1.50;81.80;;;;;;5133773;27;20038;-65
2021/12/21 05:07:46;;;;;;;6.15;3.05;;;1.40;82.10;;;;;;5132808;27;20080;-65
2021/12/21 05:10:13;;;;;;;5.93;3.20;;;1.40;82.30;;;;;;5133220;27;20059;-65
2021/12/21 05:12:39;;;;;;;5.38;3.08;;;1.40;82.30;;;;;;5124042;27;20031;-66
2021/12/21 05:15:05;;;;;;;5.38;3.35;;;1.40;82.60;;;;;;5132165;27;20094;-65
2021/12/21 05:17:31;;;;;;;9.60;3.60;;;1.40;82.60;;;;;;5132289;27;20027;-65
2021/12/21 05:19:56;;;;;;;5.05;3.17;;;1.40;82.60;;;;;;5122762;27;20030;-66
2021/12/21 05:22:23;;;;;;;6.03;3.30;;;1.40;82.90;;;;;;5112857;28;20023;-65
2021/12/21 05:24:50;;;;;;;6.97;3.28;;;1.30;82.90;;;;;;5111988;28;20076;-66
2021/12/21 05:27:17;;;;;;;7.60;3.50;;;1.30;83.10;;;;;;5112736;28;20031;-65
2021/12/21 05:29:43;;;;;;;5.10;3.20;;;1.30;83.40;;;;;;5112763;27;20038;-66
2021/12/21 05:32:08;;;;;;;5.43;3.00;;;1.30;83.50;;;;;;5112637;28;20024;-65
2021/12/21 05:34:34;;;;;;;4.85;3.50;;;1.30;83.50;;;;;;5111697;28;20426;-65
2021/12/21 05:37:05;;;;;;;7.00;3.53;;;1.30;83.80;;;;;;5112641;28;20031;-67
2021/12/21 05:39:39;;;;;;;7.20;3.72;;;1.30;84.00;;;;;;5112043;28;20059;-65
2021/12/21 05:42:06;;;;;;;6.97;3.60;;;1.30;84.00;;;;;;5113012;28;20031;-65
2021/12/21 05:44:50;;;;;;;9.00;3.33;;;1.20;84.10;;;;;;5112341;27;20023;-66
2021/12/21 05:47:17;;;;;;;5.53;3.38;;;1.20;84.30;;;;;;5112375;28;20465;-65
2021/12/21 05:49:43;;;;;;;5.35;3.42;;;1.20;84.20;;;;;;5111874;28;20102;-65
2021/12/21 05:52:09;;;;;;;12.77;4.30;;;1.20;84.50;;;;;;5112354;28;20028;-66
2021/12/21 05:54:35;;;;;;;9.00;3.95;;;1.20;84.80;;;;;;5093501;28;20092;-65
2021/12/21 05:57:02;;;;;;;6.63;3.83;;;1.10;84.90;;;;;;5112423;28;20425;-66
2021/12/21 05:59:28;;;;;;;7.78;3.97;;;1.20;85.00;;;;;;5111471;28;20019;-65
2021/12/21 06:01:53;;;;;;;5.55;3.97;;;1.10;85.00;;;;;;5112296;28;20051;-65
2021/12/21 06:04:21;;;;;;;6.72;4.22;;;1.10;85.00;;;;;;5112152;28;20031;-65
2021/12/21 06:06:47;;;;;;;5.20;3.60;;;1.10;85.00;;;;;;5111465;28;20035;-66
2021/12/21 06:09:13;;;;;;;7.07;3.75;;;1.10;84.90;;;;;;5112339;28;20032;-65
2021/12/21 06:11:47;;;;;;;8.50;3.58;;;1.10;85.10;;;;;;5111442;28;20020;-65
2021/12/21 06:27:26;;;;;;;5.95;4.10;;;1.00;85.40;;;;;;5111629;28;20495;-66
2021/12/21 06:29:52;;;;;;;7.85;4.50;;;1.00;85.50;;;;;;5111252;28;20028;-67
2021/12/21 06:32:17;;;;;;;7.40;3.83;;;1.00;85.70;;;;;;5111405;28;20027;-65
2021/12/21 06:34:43;;;;;;;7.35;3.95;;;1.00;85.70;;;;;;5109700;28;20024;-66
2021/12/21 06:37:10;;;;;;;7.60;4.32;;;1.00;86.00;;;;;;5110227;28;20296;-66
2021/12/21 06:39:36;;;;;;;7.80;4.50;;;1.00;86.20;;;;;;5109426;28;20052;-65
2021/12/21 06:42:02;;;;;;;5.82;4.20;;;1.00;86.30;;;;;;5110400;28;20046;-66
2021/12/21 06:44:29;;;;;;;10.88;4.53;;;0.90;86.30;;;;;;5092204;28;20051;-66
2021/12/21 06:52:15;;;;;;;8.63;4.28;;;0.90;86.70;;;;;;5114531;28;20479;-66
2021/12/21 06:54:40;;;;;;;9.77;4.10;;;0.90;86.60;;;;;;5111101;28;20110;-66
2021/12/21 06:57:06;;;;;;;8.82;4.32;;;0.90;86.70;;;;;;5111734;28;20032;-66
2021/12/21 06:59:32;;;;;;;7.25;4.68;;;0.90;86.90;;;;;;5111535;28;20027;-66
2021/12/21 07:01:58;;;;;;;6.32;4.30;;;0.90;87.20;;;;;;5111449;28;20433;-66
2021/12/21 07:04:24;;;;;;;6.32;4.18;;;0.90;87.10;;;;;;5111741;28;20082;-66
2021/12/21 07:06:52;;;;;;;11.18;4.63;;;0.90;87.10;;;;;;5111131;28;20054;-65
2021/12/21 07:09:27;;;;;;;8.40;5.07;;;0.90;86.90;;;;;;5111691;28;20024;-65
2021/12/21 07:12:10;;;;;;;8.25;4.88;;;0.90;86.90;;;;;;5114704;28;20079;-65
2021/12/21 07:20:05;;;;;;;12.30;5.10;;;0.90;86.70;;;;;;5115117;28;20399;-65
2021/12/21 07:22:30;;;;;;;9.13;4.55;;;1.00;86.60;;;;;;5096909;28;20032;-65
2021/12/21 07:24:56;;;;;;;8.75;4.78;;;0.90;86.60;;;;;;5114281;28;20030;-65
2021/12/21 07:27:22;;;;;;;9.88;4.32;;;0.90;86.50;;;;;;5096749;28;20076;-65
2021/12/21 07:29:49;;;;;;;8.30;5.43;;;0.90;86.70;;;;;;5114088;28;20501;-65
2021/12/21 07:32:15;;;;;;;10.77;4.57;;;0.90;87.10;;;;;;5114518;28;20460;-65
2021/12/21 07:34:41;;;;;;;10.30;4.68;;;0.90;87.30;;;;;;5113926;28;20077;-65
2021/12/21 07:37:09;;;;;;;10.38;5.07;;;0.90;87.50;;;;;;5114486;28;20036;-66
2021/12/21 07:39:36;;;;;;;8.73;4.55;;;1.00;87.60;;;;;;5114092;28;20039;-65
2021/12/21 07:42:01;;;;;;;10.75;5.15;;;1.00;87.70;;;;;;5114221;28;20102;-66
2021/12/21 07:44:27;;;;;;;7.85;4.22;;;1.00;87.80;;;;;;5096826;28;20058;-66
2021/12/21 07:46:53;;;;;;;9.23;5.07;;;1.00;87.60;;;;;;5114135;28;20055;-65
2021/12/21 07:49:18;;;;;;;6.50;4.53;;;1.00;87.70;;;;;;5114578;28;20027;-66
2021/12/21 07:51:44;;;;;;;9.40;4.68;;;1.00;87.60;;;;;;5113594;28;20368;-66
2021/12/21 07:54:10;;;;;;;8.20;4.65;;;1.00;87.70;;;;;;5114058;28;20028;-66
2021/12/21 07:56:36;;;;;;;9.13;4.65;;;1.00;87.80;;;;;;5113594;28;20028;-66
2021/12/21 07:59:02;;;;;;;11.50;4.57;;;1.10;87.90;;;;;;5114444;28;20023;-66
2021/12/21 08:01:27;;;;;;;10.35;4.95;;;1.10;87.80;;;;;;5114190;28;20106;-66
2021/12/21 08:03:54;;;;;;;9.35;4.97;;;1.10;87.70;;;;;;5113758;28;20372;-66
2021/12/21 08:06:20;;;;;;;8.18;4.45;;;1.10;87.40;;;;;;5114235;28;20087;-65
2021/12/21 08:08:48;;;;;;;8.35;5.30;;;1.10;87.20;;;;;;5113522;28;20027;-66
2021/12/21 08:11:27;;;;;;;10.10;5.53;;;1.20;87.20;;;;;;5114342;28;20016;-66
2021/12/21 08:13:53;;;;;;;8.63;5.32;;;1.20;87.20;;;;;;5113439;28;20023;-66
2021/12/21 08:16:19;;;;;;;7.10;4.60;;;1.20;87.10;;;;;;5113986;28;20063;-65
2021/12/21 08:18:45;;;;;;;9.63;5.20;;;1.20;87.00;;;;;;5113051;28;20059;-65
2021/12/21 08:21:15;;;;;;;9.10;4.80;;;1.20;86.80;;;;;;5113940;28;20038;-66
2021/12/21 08:23:41;;;;;;;11.25;5.50;;;1.30;86.50;;;;;;5113375;28;20047;-65
2021/12/21 08:26:07;;;;;;;12.02;4.80;;;1.30;86.20;;;;;;5130053;27;20458;-66
2021/12/21 08:28:32;;;;;;;6.22;4.60;;;1.30;85.90;;;;;;5134411;27;20539;-66
2021/12/21 08:30:58;;;;;;;6.20;4.45;;;1.40;85.50;;;;;;5133754;27;20026;-66
2021/12/21 08:33:24;;;;;;;11.00;5.35;;;1.40;84.90;;;;;;5115711;27;20380;-66
2021/12/21 08:35:50;;;;;;;10.27;4.50;;;1.50;84.90;;;;;;5133842;27;20102;-65
2021/12/21 08:38:18;;;;;;;9.82;5.30;;;1.50;84.90;;;;;;5134428;27;20503;-65
2021/12/21 08:40:49;;;;;;;11.35;4.90;;;1.50;84.70;;;;;;5133451;27;20031;-65
2021/12/21 08:43:17;;;;;;;9.88;4.78;;;1.50;84.50;;;;;;5134170;27;20075;-65
2021/12/21 08:45:46;;;;;;;8.02;4.65;;;1.60;84.20;;;;;;5133070;27;20514;-65
2021/12/21 08:48:13;;;;;;;10.48;5.28;;;1.60;84.00;;;;;;5115193;27;20028;-66
2021/12/21 08:50:39;;;;;;;6.50;4.95;;;1.60;83.60;;;;;;5133145;27;20378;-66
2021/12/21 08:53:05;;;;;;;12.10;5.30;;;1.70;83.60;;;;;;5133842;27;20038;-65
2021/12/21 08:55:31;;;;;;;7.75;4.72;;;1.70;83.70;;;;;;5123138;27;20020;-65
2021/12/21 08:57:57;;;;;;;7.93;4.32;;;1.70;82.80;;;;;;5112706;28;20027;-65
2021/12/21 09:00:23;;;;;;;7.95;4.50;;;1.80;82.30;;;;;;5113207;28;20055;-66
2021/12/21 09:02:50;;;;;;;6.53;4.25;;;1.80;82.00;;;;;;5112897;28;20037;-65
2021/12/21 09:05:19;;;;;;;7.30;5.03;;;1.80;82.00;;;;;;5113072;28;20028;-66
2021/12/21 09:07:46;;;;;;;8.70;4.78;;;1.90;81.90;;;;;;5112379;28;20483;-66
2021/12/21 09:10:13;;;;;;;9.75;4.65;;;1.90;81.90;;;;;;5112688;28;20372;-66
2021/12/21 09:12:40;;;;;;;6.30;4.43;;;2.00;81.80;;;;;;5112855;28;20089;-65
2021/12/21 09:15:07;;;;;;;7.50;4.25;;;2.00;81.40;;;;;;5112973;28;20020;-65
2021/12/21 09:17:33;;;;;;;9.82;4.45;;;2.10;80.50;;;;;;5113011;28;20028;-66
2021/12/21 09:19:59;;;;;;;7.90;4.53;;;2.10;79.90;;;;;;5112408;28;20036;-65
2021/12/21 09:22:26;;;;;;;5.60;4.18;;;2.10;79.70;;;;;;5112567;28;20107;-66
2021/12/21 09:24:52;;;;;;;9.02;4.57;;;2.10;79.50;;;;;;5093922;28;20027;-66
2021/12/21 09:27:18;;;;;;;9.65;5.18;;;2.20;79.50;;;;;;5112292;28;20437;-66
2021/12/21 09:29:45;;;;;;;7.85;4.40;;;2.20;79.30;;;;;;5112080;28;20058;-66
2021/12/21 09:32:13;;;;;;;8.15;4.50;;;2.30;78.50;;;;;;5112138;28;20107;-66
2021/12/21 09:34:42;;;;;;;8.82;4.32;;;2.30;77.70;;;;;;5112529;28;20077;-65
2021/12/21 09:37:14;;;;;;;7.25;4.30;;;2.30;77.30;;;;;;5112620;28;20062;-65
2021/12/21 09:39:41;;;;;;;10.52;4.32;;;2.40;78.10;;;;;;5112343;28;20031;-65
2021/12/21 09:42:08;;;;;;;8.23;4.60;;;2.40;77.30;;;;;;5112664;28;20054;-66
2021/12/21 09:44:33;;;;;;;8.00;4.53;;;2.50;76.70;;;;;;5112120;28;20493;-65
2021/12/21 09:47:00;;;;;;;6.90;4.07;;;2.50;76.50;;;;;;5111363;28;20086;-66
2021/12/21 09:49:25;;;;;;;7.18;4.05;;;2.60;76.00;;;;;;5112385;28;20054;-66
2021/12/21 09:51:51;;;;;;;5.40;3.42;;;2.60;74.50;;;;;;5111613;28;20054;-65
2021/12/21 09:54:21;;;;;;;6.00;3.90;;;2.70;73.60;;;;;;5112106;28;20472;-65
2021/12/21 09:56:46;;;;;;;6.88;3.80;;;2.70;73.20;;;;;;5111785;28;20028;-66
2021/12/21 09:59:12;;;;;;;6.22;4.00;;;2.80;73.20;;;;;;5112248;28;20026;-65
2021/12/21 10:01:38;;;;;;;6.53;3.40;;;2.80;72.90;;;;;;5111986;28;20464;-66
2021/12/21 10:04:04;;;;;;;6.05;2.80;;;2.90;72.20;;;;;;5111376;28;20790;-66
2021/12/21 10:06:30;;;;;;;4.88;2.92;;;3.00;71.10;;;;;;5112169;28;20036;-65
2021/12/21 10:09:08;;;;;;;8.57;3.47;;;3.20;67.80;;;;;;5111387;28;20027;-65
2021/12/21 10:11:47;;;;;;;4.10;3.08;;;3.30;67.40;;;;;;5112240;28;20028;-65
2021/12/21 10:14:15;;;;;;;4.30;2.30;;;3.50;66.90;;;;;;5112209;28;20107;-65
2021/12/21 10:16:42;;;;;;;3.40;2.45;;;3.70;66.20;;;;;;5111914;28;20426;-65
2021/12/21 10:19:08;;;;;;;3.38;2.20;;;3.90;65.20;;;;;;5111820;28;20031;-65
2021/12/21 10:21:44;;;;;;;5.55;2.75;;;4.10;64.40;;;;;;5112151;28;20027;-66
2021/12/21 10:24:25;;;;;;;6.32;2.20;;;4.30;62.80;;;;;;5111699;28;20105;-66
2021/12/21 10:27:08;;;;;;;3.17;1.80;;;4.40;61.60;;;;;;5111447;28;20123;-66
2021/12/21 10:30:00;;;;;;;3.10;1.60;;;4.60;60.60;;;;;;5129535;28;20068;-65
2021/12/21 10:32:29;;;;;;;4.03;1.92;;;4.80;57.50;;;;;;5128267;28;20028;-64
2021/12/21 10:35:00;;;;;;;8.05;1.70;;;5.00;57.10;;;;;;5131945;28;20026;-65
2021/12/21 10:37:35;;;;;;;3.03;1.60;;;5.10;56.00;;;;;;5132387;28;20054;-64
2021/12/21 10:40:27;;;;;;;2.03;1.48;;;5.20;55.50;;;;;;5131844;28;20038;-65
2021/12/21 10:42:53;;;;;;;3.55;1.30;;;5.40;54.90;;;;;;5131844;28;20131;-64
2021/12/21 10:45:34;;;;;;;3.67;1.70;;;5.50;53.20;;;;;;5134043;27;20608;-65
2021/12/21 10:48:02;;;;;;;4.88;1.83;;;5.50;52.40;;;;;;5117203;27;20038;-65
2021/12/21 10:50:33;;;;;;;2.97;1.58;;;5.60;52.30;;;;;;5097338;28;20027;-65
2021/12/21 10:53:01;;;;;;;2.83;1.50;;;5.70;51.50;;;;;;5115106;28;20019;-65
2021/12/21 10:55:31;;;;;;;4.40;1.33;;;5.70;51.00;;;;;;5115336;28;20111;-65
2021/12/21 10:58:03;;;;;;;3.53;1.50;;;5.60;50.70;;;;;;5114728;28;20484;-65
2021/12/21 11:00:29;;;;;;;4.18;1.70;;;5.50;50.70;;;;;;5115620;28;20464;-65
2021/12/21 11:02:55;;;;;;;2.17;1.60;;;5.40;51.00;;;;;;5115332;28;20043;-65
2021/12/21 11:05:21;;;;;;;2.17;1.45;;;5.30;50.50;;;;;;5115363;28;20030;-65
2021/12/21 11:08:07;;;;;;;3.95;1.58;;;5.30;50.40;;;;;;5115275;28;20032;-65
2021/12/21 11:10:36;;;;;;;2.05;1.70;;;5.40;51.00;;;;;;5115440;28;20469;-65
2021/12/21 11:13:10;;;;;;;2.78;1.50;;;5.30;50.60;;;;;;5114789;28;20027;-65
2021/12/21 11:15:53;;;;;;;2.22;1.50;;;5.30;50.80;;;;;;5115035;28;20123;-65
2021/12/21 11:18:21;;;;;;;3.15;1.63;;;5.30;51.20;;;;;;5115358;28;20028;-65
2021/12/21 11:20:50;;;;;;;1.92;1.50;;;5.40;50.60;;;;;;5115165;28;20020;-65
2021/12/21 11:23:18;;;;;;;2.50;1.40;;;5.50;50.30;;;;;;5115070;28;20031;-65
2021/12/21 11:25:48;;;;;;;1.80;1.23;;;5.60;50.50;;;;;;5115380;28;20076;-64
2021/12/21 11:28:22;;;;;;;3.28;1.52;;;5.60;50.50;;;;;;5114459;28;20047;-65
2021/12/21 11:30:49;;;;;;;3.00;1.40;;;5.70;50.30;;;;;;5114684;28;20468;-65
2021/12/21 11:33:18;;;;;;;2.58;1.48;;;5.80;49.90;;;;;;5114892;28;20024;-65
2021/12/21 11:38:12;;;;;;;2.67;1.65;;;6.10;50.00;;;;;;5114262;28;20042;-65
2021/12/21 11:40:44;;;;;;;2.70;1.67;;;6.20;49.10;;;;;;5114855;28;20026;-65
2021/12/21 11:43:32;;;;;;;1.67;1.40;;;6.30;49.00;;;;;;5113980;28;20032;-66
2021/12/21 11:45:57;;;;;;;2.45;1.65;;;6.40;48.30;;;;;;5113573;28;20047;-65
2021/12/21 11:48:51;;;;;;;1.90;1.40;;;6.40;48.00;;;;;;5114693;28;20112;-65
2021/12/21 11:51:17;;;;;;;2.08;1.52;;;6.50;47.80;;;;;;5114079;28;20039;-65
2021/12/21 11:53:42;;;;;;;1.60;1.50;;;6.60;47.60;;;;;;5114654;28;20085;-65
2021/12/21 11:56:16;;;;;;;3.00;1.40;;;6.60;47.10;;;;;;5113367;28;20032;-65
2021/12/21 11:58:42;;;;;;;1.55;1.10;;;6.70;46.60;;;;;;5114442;28;20080;-65
2021/12/21 12:01:19;;;;;;;2.78;1.35;;;6.70;46.30;;;;;;5113751;28;20433;-65
2021/12/21 12:04:00;;;;;;;1.60;1.48;;;6.80;46.20;;;;;;5114271;28;20468;-65
2021/12/21 12:06:47;;;;;;;4.05;1.67;;;6.80;46.20;;;;;;5114307;28;20028;-65
2021/12/21 12:09:23;;;;;;;4.22;1.65;;;6.80;46.10;;;;;;5112844;28;20134;-65
2021/12/21 12:11:49;;;;;;;2.33;1.55;;;6.90;46.80;;;;;;5114271;28;20024;-65
2021/12/21 12:14:18;;;;;;;2.92;1.40;;;6.80;45.90;;;;;;5113864;28;20034;-65
2021/12/21 12:16:52;;;;;;;5.38;1.42;;;6.70;45.80;;;;;;5114451;28;20495;-66
2021/12/21 12:19:22;;;;;;;2.85;1.42;;;6.60;46.10;;;;;;5114185;28;20024;-66
2021/12/21 12:21:55;;;;;;;3.50;1.70;;;6.50;46.20;;;;;;5113624;28;20472;-66
2021/12/21 12:24:22;;;;;;;4.43;1.75;;;6.40;46.80;;;;;;5113632;28;20036;-66
2021/12/21 12:27:00;;;;;;;3.30;1.90;;;6.30;47.20;;;;;;5113647;28;20077;-66
2021/12/21 12:29:26;;;;;;;4.43;2.00;;;6.20;47.60;;;;;;5113144;27;20055;-65
2021/12/21 12:32:11;;;;;;;8.93;2.03;;;6.20;48.20;;;;;;5134524;27;20033;-65
2021/12/21 12:34:38;;;;;;;3.70;2.30;;;6.10;48.40;;;;;;5134582;27;20023;-65
2021/12/21 12:37:15;;;;;;;2.90;2.10;;;6.00;48.80;;;;;;5133497;27;20038;-66
2021/12/21 12:39:46;;;;;;;4.43;2.00;;;5.90;48.80;;;;;;5132979;27;20023;-66
2021/12/21 12:42:33;;;;;;;2.83;1.90;;;5.80;49.10;;;;;;5113068;28;20024;-66
2021/12/21 12:45:16;;;;;;;4.20;2.08;;;5.60;49.40;;;;;;5112792;28;20074;-65
2021/12/21 12:47:52;;;;;;;2.72;1.80;;;5.50;49.70;;;;;;5113456;28;20361;-65
2021/12/21 12:50:24;;;;;;;6.68;2.00;;;5.50;49.90;;;;;;5112987;28;20062;-66
2021/12/21 12:53:05;;;;;;;4.10;2.00;;;5.40;50.20;;;;;;5113161;28;20081;-66
2021/12/21 12:55:58;;;;;;;2.70;2.15;;;5.30;50.60;;;;;;5113122;28;20024;-66
2021/12/21 12:58:27;;;;;;;3.53;2.20;;;5.20;50.80;;;;;;5113565;28;20028;-66
2021/12/21 13:01:21;;;;;;;2.63;2.28;;;5.20;50.90;;;;;;5113002;28;20453;-66
2021/12/21 13:03:47;;;;;;;2.70;2.22;;;5.10;50.80;;;;;;5113212;28;20052;-65
2021/12/21 13:06:20;;;;;;;3.67;1.90;;;5.00;51.20;;;;;;5112472;28;20027;-66
2021/12/21 13:08:47;;;;;;;4.43;2.35;;;5.00;51.50;;;;;;5112381;28;20039;-65
2021/12/21 13:11:18;;;;;;;2.63;2.15;;;5.00;52.10;;;;;;5112310;28;20030;-65
2021/12/21 13:13:45;;;;;;;;;;;4.90;52.50;;;;;;5113224;28;20098;-65
2021/12/21 13:16:28;;;;;;;4.25;2.13;;;4.90;52.90;;;;;;5112249;28;19999;-66
2021/12/21 13:19:05;;;;;;;7.07;2.60;;;4.90;53.50;;;;;;5112993;28;20059;-65
2021/12/21 13:21:36;;;;;;;3.13;2.30;;;4.80;53.10;;;;;;5112886;28;20023;-65
2021/12/21 13:24:10;;;;;;;5.27;2.47;;;4.80;53.20;;;;;;5111866;28;20483;-66
2021/12/21 13:26:41;;;;;;;5.82;2.75;;;4.80;53.70;;;;;;5112827;28;20035;-65
2021/12/21 13:29:10;;;;;;;;;;;4.80;53.90;;;;;;5112734;28;20041;-65
2021/12/21 13:31:37;;;;;;;5.28;2.13;;;4.80;54.20;;;;;;5112599;28;19910;-65
2021/12/21 13:34:04;;;;;;;2.80;2.28;;;4.80;54.20;;;;;;5112054;28;20135;-65
2021/12/21 13:36:37;;;;;;;5.35;2.00;;;4.80;53.90;;;;;;5112644;28;20038;-65
2021/12/21 13:39:21;;;;;;;2.10;1.75;;;4.80;54.00;;;;;;5112002;28;20073;-65
2021/12/21 13:41:55;;;;;;;5.97;3.10;;;4.70;53.80;;;;;;5112431;28;20073;-65
2021/12/21 13:44:32;;;;;;;4.35;2.17;;;4.80;54.10;;;;;;5111860;28;20055;-66
2021/12/21 13:47:18;;;;;;;6.47;3.00;;;4.70;54.00;;;;;;5111717;28;20162;-65
2021/12/21 13:50:13;;;;;;;3.20;1.80;;;4.70;54.90;;;;;;5098059;28;20036;-66
2021/12/21 13:52:41;;;;;;;9.00;2.50;;;4.70;54.50;;;;;;5112426;28;20467;-65
2021/12/21 13:55:25;;;;;;;5.38;2.15;;;4.70;54.50;;;;;;5111975;28;20173;-66
2021/12/21 13:57:55;;;;;;;8.15;2.45;;;4.60;54.70;;;;;;5112467;28;20032;-66
2021/12/21 14:00:29;;;;;;;6.38;2.38;;;4.60;55.10;;;;;;5111712;28;20027;-66
2021/12/21 14:03:15;;;;;;;4.60;2.45;;;4.60;55.40;;;;;;5112366;28;20421;-65
2021/12/21 14:05:47;;;;;;;4.05;2.35;;;4.50;55.60;;;;;;5112131;28;20491;-65
2021/12/21 14:08:15;;;;;;;3.90;2.50;;;4.50;56.00;;;;;;5111532;28;20115;-66
2021/12/21 14:10:43;;;;;;;6.10;2.35;;;4.50;56.20;;;;;;5112415;28;20032;-66
2021/12/21 14:13:09;;;;;;;3.70;2.53;;;4.40;56.50;;;;;;5111572;28;20028;-65
2021/12/21 14:15:36;;;;;;;4.63;2.65;;;4.40;56.80;;;;;;5112273;28;20024;-65